Time;durP1;ratioP1;P1;durP2;ratioP2;P2;SDS_P1;SDS_P2;PMS_P1;PMS_P2;Temp;Humidity;BMP_temperature;BMP_pressure;BME280_temperature;BME280_humidity;BME280_pressure;Samples;Min_cycle;Max_cycle;Signal;HPM_P1;HPM_P2
2023/02/24 00:01:38;;;;;;;25.63;18.47;;;;;;;9.28;100.00;153742.97;4935255;29;20488;-82
2023/02/24 00:04:07;;;;;;;28.03;18.90;;;;;;;9.28;100.00;153742.97;4917373;29;20468;-82
2023/02/24 00:06:36;;;;;;;27.20;19.00;;;;;;;9.27;100.00;153740.38;4935321;29;20457;-83
2023/02/24 00:09:06;;;;;;;35.10;20.67;;;;;;;9.27;100.00;153740.38;4924048;29;20456;-82
2023/02/24 00:11:35;;;;;;;29.60;17.67;;;;;;;9.29;100.00;153744.28;4932235;29;20457;-82
2023/02/24 00:14:04;;;;;;;29.87;21.23;;;;;;;9.27;100.00;153740.38;4910307;29;20465;-82
2023/02/24 00:16:32;;;;;;;23.77;20.27;;;;;;;9.23;100.00;153730.03;4919026;29;20452;-82
2023/02/24 00:18:59;;;;;;;26.10;19.80;;;;;;;9.24;100.00;153732.59;4905147;29;20533;-82
2023/02/24 00:21:27;;;;;;;26.23;18.90;;;;;;;9.23;100.00;153728.75;4933611;29;20832;-82
2023/02/24 00:23:54;;;;;;;28.40;20.17;;;;;;;9.24;100.00;153732.59;4928005;29;20537;-82
2023/02/24 00:26:21;;;;;;;25.43;18.90;;;;;;;9.23;100.00;153728.75;4946116;29;20879;-82
2023/02/24 00:28:49;;;;;;;27.43;20.00;;;;;;;9.19;100.00;153720.97;4939084;28;20498;-82
2023/02/24 00:31:17;;;;;;;24.03;17.70;;;;;;;9.18;100.00;153718.41;4919475;29;20472;-82
2023/02/24 00:33:44;;;;;;;29.57;20.50;;;;;;;9.18;100.00;153717.13;4938448;29;21072;-82
2023/02/24 00:36:13;;;;;;;27.63;20.07;;;;;;;9.19;100.00;153719.69;4928148;29;20466;-82
2023/02/24 00:38:44;;;;;;;26.30;18.73;;;;;;;9.18;100.00;153717.13;4924371;29;20523;-82
2023/02/24 00:41:13;;;;;;;29.00;19.70;;;;;;;9.21;100.00;153723.59;4909147;29;20564;-81
2023/02/24 00:43:45;;;;;;;28.10;20.77;;;;;;;9.17;100.00;153714.50;4928745;29;20950;-82
2023/02/24 00:46:16;;;;;;;26.67;18.93;;;;;;;9.20;100.00;153722.28;4938380;29;20448;-82
2023/02/24 00:48:44;;;;;;;28.53;19.40;;;;;;;9.15;100.00;153709.34;4924977;29;20936;-82
2023/02/24 00:51:12;;;;;;;27.90;19.60;;;;;;;9.11;100.00;153698.97;4944423;29;20440;-82
2023/02/24 00:53:39;;;;;;;26.50;20.07;;;;;;;9.12;100.00;153701.59;4928309;29;20468;-80
2023/02/24 00:56:07;;;;;;;25.37;19.37;;;;;;;9.07;100.00;153688.66;4921625;29;20446;-82
2023/02/24 00:58:35;;;;;;;30.37;20.00;;;;;;;9.04;100.00;153680.88;4916959;29;20809;-82
2023/02/24 01:01:03;;;;;;;25.23;18.90;;;;;;;9.04;100.00;153680.88;4926891;29;20555;-82
2023/02/24 01:03:32;;;;;;;29.77;21.37;;;;;;;9.07;100.00;153688.66;4921786;29;20452;-82
2023/02/24 01:06:01;;;;;;;24.33;18.23;;;;;;;9.06;100.00;153687.34;4923482;29;20568;-82
2023/02/24 01:08:30;;;;;;;27.87;19.30;;;;;;;9.04;100.00;153680.88;4941472;29;20548;-82
2023/02/24 01:13:38;;;;;;;26.63;19.10;;;;;;;9.05;100.00;153684.75;4898893;29;20478;-82
2023/02/24 01:16:07;;;;;;;26.07;19.00;;;;;;;9.02;100.00;153677.03;4947896;29;20469;-82
2023/02/24 01:18:35;;;;;;;25.13;18.67;;;;;;;9.01;100.00;153674.44;4938100;29;20457;-82
2023/02/24 01:21:02;;;;;;;27.00;20.30;;;;;;;8.99;100.00;153669.25;4917012;29;20559;-82
2023/02/24 01:23:29;;;;;;;25.53;18.20;;;;;;;8.96;100.00;153660.19;4912302;29;20477;-82
2023/02/24 01:25:58;;;;;;;22.37;18.23;;;;;;;8.97;100.00;153662.81;4935760;29;20611;-82
2023/02/24 01:28:27;;;;;;;25.87;19.40;;;;;;;8.96;100.00;153661.50;4908323;29;20534;-81
2023/02/24 01:30:54;;;;;;;23.80;18.37;;;;;;;8.91;100.00;153648.56;4913903;29;20453;-82
2023/02/24 01:33:23;;;;;;;26.93;19.70;;;;;;;8.89;100.00;153643.41;4922424;29;20928;-82
2023/02/24 01:35:54;;;;;;;29.30;21.50;;;;;;;8.92;100.00;153649.88;4902050;29;20548;-81
2023/02/24 01:38:21;;;;;;;30.70;21.33;;;;;;;8.90;100.00;153644.66;4923071;29;20452;-81
2023/02/24 01:40:56;;;;;;;26.30;19.80;;;;;;;8.96;100.00;153661.50;4918780;29;20848;-81
2023/02/24 01:43:22;;;;;;;26.97;19.87;;;;;;;8.89;100.00;153642.13;4924446;29;20877;-81
2023/02/24 01:45:50;;;;;;;28.97;21.80;;;;;;;8.88;100.00;153639.50;4912921;29;20501;-81
2023/02/24 01:48:17;;;;;;;28.17;21.37;;;;;;;8.87;100.00;153636.94;4934244;29;20891;-81
2023/02/24 01:50:45;;;;;;;26.97;19.80;;;;;;;8.84;100.00;153630.44;4904797;29;20457;-82
2023/02/24 01:53:13;;;;;;;27.27;21.60;;;;;;;8.81;100.00;153621.41;4919686;29;20952;-81
2023/02/24 01:55:42;;;;;;;28.43;20.50;;;;;;;8.82;100.00;153623.97;4927344;29;20576;-81
2023/02/24 01:58:19;;;;;;;29.80;22.30;;;;;;;8.84;100.00;153629.19;4917248;29;20560;-81
2023/02/24 02:00:47;;;;;;;28.23;22.37;;;;;;;8.85;100.00;153631.75;4902792;29;20544;-81
2023/02/24 02:03:22;;;;;;;28.60;21.63;;;;;;;8.80;100.00;153620.13;4921930;29;20457;-81
2023/02/24 02:05:50;;;;;;;29.13;22.40;;;;;;;8.78;100.00;153614.97;4921877;29;20467;-82
2023/02/24 02:08:19;;;;;;;28.37;21.83;;;;;;;8.80;100.00;153620.13;4919632;29;20467;-81
2023/02/24 02:10:46;;;;;;;26.47;21.93;;;;;;;8.78;100.00;153613.66;4908696;29;20447;-81
2023/02/24 02:13:15;;;;;;;28.20;20.50;;;;;;;8.77;100.00;153611.06;4920785;29;20456;-81
2023/02/24 02:15:50;;;;;;;25.80;20.73;;;;;;;8.78;100.00;153613.66;4926813;29;20448;-81
2023/02/24 02:18:23;;;;;;;26.60;19.13;;;;;;;8.74;100.00;153603.28;4913997;29;20459;-81
2023/02/24 02:21:04;;;;;;;27.03;18.90;;;;;;;8.70;100.00;153592.97;4915045;29;20457;-81
2023/02/24 02:23:58;;;;;;;25.77;18.80;;;;;;;8.65;100.00;153580.03;4906730;29;20936;-81
2023/02/24 02:26:52;;;;;;;26.23;21.27;;;;;;;8.68;100.00;153589.13;4911502;29;20488;-82
2023/02/24 02:29:43;;;;;;;25.50;19.53;;;;;;;8.65;100.00;153580.03;4924069;29;20835;-81
2023/02/24 02:32:50;;;;;;;26.40;21.17;;;;;;;8.63;100.00;153574.88;4901875;29;20449;-81
2023/02/24 02:35:22;;;;;;;27.50;21.10;;;;;;;8.61;100.00;153569.69;4910338;29;20443;-81
2023/02/24 02:37:55;;;;;;;27.03;18.63;;;;;;;8.64;100.00;153578.75;4913431;29;20472;-81
2023/02/24 02:40:26;;;;;;;25.30;20.33;;;;;;;8.63;100.00;153574.88;4917028;29;20452;-81
2023/02/24 02:42:57;;;;;;;31.77;19.90;;;;;;;8.60;100.00;153567.13;4904271;29;20571;-81
2023/02/24 02:45:31;;;;;;;28.30;20.20;;;;;;;8.62;100.00;153573.59;4897540;29;20520;-82
2023/02/24 02:48:01;;;;;;;24.83;18.93;;;;;;;8.62;100.00;153573.59;4906642;29;20451;-82
2023/02/24 02:50:34;;;;;;;29.97;20.47;;;;;;;8.61;100.00;153570.97;4923680;29;20451;-82
2023/02/24 02:53:04;;;;;;;26.77;20.97;;;;;;;8.57;100.00;153561.97;4930873;29;20453;-82
2023/02/24 02:55:36;;;;;;;28.10;20.67;;;;;;;8.56;100.00;153559.38;4934288;29;20464;-81
2023/02/24 02:58:06;;;;;;;25.70;20.00;;;;;;;8.53;100.00;153551.59;4920688;29;20459;-81
2023/02/24 03:00:40;;;;;;;27.63;18.87;;;;;;;8.50;100.00;153543.84;4920982;29;20527;-81
2023/02/24 03:03:11;;;;;;;25.50;19.30;;;;;;;8.51;100.00;153545.13;4900870;29;21215;-82
2023/02/24 03:05:45;;;;;;;25.70;19.70;;;;;;;8.49;100.00;153541.28;4923620;29;20547;-81
2023/02/24 03:08:15;;;;;;;28.83;20.03;;;;;;;8.45;100.00;153530.91;4892905;29;20468;-82
2023/02/24 03:10:49;;;;;;;27.77;20.13;;;;;;;8.50;100.00;153543.84;4934692;29;21252;-82
2023/02/24 03:13:16;;;;;;;28.97;20.30;;;;;;;8.44;100.00;153528.34;4921011;29;20448;-81
2023/02/24 03:15:46;;;;;;;29.30;20.00;;;;;;;8.42;100.00;153523.16;4906737;29;20500;-82
2023/02/24 03:18:17;;;;;;;26.40;19.47;;;;;;;8.42;100.00;153523.16;4931623;29;20449;-81
2023/02/24 03:20:47;;;;;;;26.10;19.80;;;;;;;8.41;100.00;153520.59;4904872;29;20445;-81
2023/02/24 03:23:18;;;;;;;29.20;22.40;;;;;;;8.41;100.00;153520.59;4920548;29;20845;-81
2023/02/24 03:25:52;;;;;;;29.43;20.33;;;;;;;8.43;100.00;153525.75;4932543;29;20477;-81
2023/02/24 03:28:23;;;;;;;26.43;20.10;;;;;;;8.45;100.00;153530.91;4936218;29;20465;-81
2023/02/24 03:30:58;;;;;;;26.00;19.20;;;;;;;8.41;100.00;153520.59;4917247;29;20901;-81
2023/02/24 03:33:29;;;;;;;29.10;19.90;;;;;;;8.41;100.00;153520.59;4889078;29;20461;-82
2023/02/24 03:36:00;;;;;;;32.33;23.73;;;;;;;8.41;100.00;153519.28;4922734;29;20450;-82
2023/02/24 03:38:29;;;;;;;27.53;21.50;;;;;;;8.40;100.00;153518.00;4933975;29;20474;-81
2023/02/24 03:40:57;;;;;;;29.63;21.60;;;;;;;8.46;100.00;153533.53;4904057;29;20460;-81
2023/02/24 03:43:30;;;;;;;32.63;23.17;;;;;;;8.40;100.00;153518.00;4900225;29;20480;-81
2023/02/24 03:45:59;;;;;;;34.27;22.83;;;;;;;8.40;100.00;153516.69;4918267;29;20821;-82
2023/02/24 03:48:27;;;;;;;29.90;22.33;;;;;;;8.41;100.00;153520.59;4932193;29;20552;-81
2023/02/24 03:50:54;;;;;;;36.10;24.10;;;;;;;8.42;100.00;153523.16;4904212;29;20449;-82
2023/02/24 03:53:50;;;;;;;31.40;23.23;;;;;;;8.46;100.00;153533.53;4935575;29;20472;-82
2023/02/24 03:56:28;;;;;;;32.97;23.47;;;;;;;8.49;100.00;153541.28;4902742;29;20548;-81
2023/02/24 03:59:05;;;;;;;31.77;21.03;;;;;;;8.51;100.00;153546.44;4915042;29;20461;-81
2023/02/24 04:01:37;;;;;;;33.60;23.07;;;;;;;8.56;100.00;153558.06;4916287;29;20488;-81
2023/02/24 04:04:08;;;;;;;32.43;23.83;;;;;;;8.55;100.00;153555.50;4905026;29;20529;-80
2023/02/24 04:06:49;;;;;;;31.20;22.47;;;;;;;8.56;100.00;153558.06;4903712;29;20443;-80
2023/02/24 04:09:23;;;;;;;33.37;24.97;;;;;;;8.55;100.00;153556.75;4904125;29;20462;-80
2023/02/24 04:12:08;;;;;;;30.53;23.40;;;;;;;8.58;100.00;153564.53;4903388;29;20472;-81
2023/02/24 04:14:41;;;;;;;32.50;23.57;;;;;;;8.60;100.00;153567.13;4897571;29;21026;-80
2023/02/24 04:17:13;;;;;;;30.07;22.20;;;;;;;8.61;100.00;153569.69;4902900;29;20452;-80
2023/02/24 04:19:42;;;;;;;31.53;21.87;;;;;;;8.57;100.00;153560.66;4919251;29;20454;-81
2023/02/24 04:22:14;;;;;;;30.47;21.03;;;;;;;8.58;100.00;153564.53;4935220;29;20820;-81
2023/02/24 04:24:44;;;;;;;28.60;22.27;;;;;;;8.60;100.00;153567.13;4900943;28;20460;-81
2023/02/24 04:27:11;;;;;;;31.97;23.37;;;;;;;8.57;100.00;153561.97;4926842;29;20437;-81
2023/02/24 04:29:47;;;;;;;31.03;22.20;;;;;;;8.55;100.00;153556.75;4919294;29;20533;-81
2023/02/24 04:32:18;;;;;;;28.57;22.23;;;;;;;8.55;100.00;153556.75;4903033;29;20452;-81
2023/02/24 04:34:45;;;;;;;34.40;22.70;;;;;;;8.51;100.00;153546.44;4917835;29;20452;-80
2023/02/24 04:37:13;;;;;;;29.40;22.80;;;;;;;8.51;100.00;153545.13;4914988;29;20458;-81
2023/02/24 04:39:40;;;;;;;32.37;23.20;;;;;;;8.45;100.00;153530.91;4916672;29;20809;-80
2023/02/24 04:42:21;;;;;;;31.30;22.43;;;;;;;8.45;100.00;153530.91;4916794;29;20473;-80
2023/02/24 04:44:47;;;;;;;30.30;22.30;;;;;;;8.41;100.00;153519.28;4906796;29;20453;-80
2023/02/24 04:47:14;;;;;;;36.63;24.50;;;;;;;8.37;100.00;153510.22;4918662;29;20447;-81
2023/02/24 04:49:41;;;;;;;39.17;25.10;;;;;;;8.36;100.00;153506.38;4920885;29;20883;-81
2023/02/24 04:52:09;;;;;;;35.23;23.80;;;;;;;8.33;100.00;153499.91;4924344;29;20537;-81
2023/02/24 04:54:36;;;;;;;39.43;25.30;;;;;;;8.31;100.00;153493.47;4933549;29;20437;-80
2023/02/24 04:57:04;;;;;;;33.97;25.80;;;;;;;8.30;100.00;153492.16;4918452;29;21187;-80
2023/02/24 04:59:34;;;;;;;38.40;26.67;;;;;;;8.25;100.00;153479.19;4919042;29;20536;-80
2023/02/24 05:02:01;;;;;;;40.60;26.50;;;;;;;8.25;100.00;153479.19;4908989;29;21285;-80
2023/02/24 05:04:30;;;;;;;38.27;24.47;;;;;;;8.27;100.00;153484.41;4935294;29;20469;-80
2023/02/24 05:06:57;;;;;;;38.37;25.37;;;;;;;8.24;100.00;153476.59;4917289;29;20457;-80
2023/02/24 05:09:28;;;;;;;38.60;26.57;;;;;;;8.26;100.00;153480.50;4901509;29;20465;-80
2023/02/24 05:11:57;;;;;;;39.60;25.37;;;;;;;8.23;100.00;153474.03;4914536;29;20453;-80
2023/02/24 05:14:24;;;;;;;38.83;26.97;;;;;;;8.24;100.00;153476.59;4914579;29;20467;-82
2023/02/24 05:16:58;;;;;;;39.47;26.50;;;;;;;8.25;100.00;153479.19;4919422;29;20451;-82
2023/02/24 05:22:13;;;;;;;40.03;27.37;;;;;;;8.27;100.00;153483.09;4927296;29;20829;-82
2023/02/24 05:24:40;;;;;;;42.33;26.37;;;;;;;8.27;100.00;153484.41;4931157;28;20457;-81
2023/02/24 05:27:07;;;;;;;39.23;27.03;;;;;;;8.22;100.00;153471.44;4933717;29;20453;-82
2023/02/24 05:29:35;;;;;;;42.77;26.80;;;;;;;8.26;100.00;153480.50;4924162;29;20519;-81
2023/02/24 05:32:04;;;;;;;40.47;26.20;;;;;;;8.23;100.00;153474.03;4938242;29;20543;-82
2023/02/24 05:34:32;;;;;;;38.57;25.17;;;;;;;8.24;100.00;153476.59;4920067;29;20452;-82
2023/02/24 05:37:00;;;;;;;41.83;25.27;;;;;;;8.24;100.00;153475.28;4926915;29;20448;-82
2023/02/24 05:39:27;;;;;;;42.67;25.27;;;;;;;8.28;100.00;153487.00;4917381;29;20456;-81
2023/02/24 05:41:55;;;;;;;42.60;24.40;;;;;;;8.32;100.00;153496.00;4916608;29;20457;-82
2023/02/24 05:44:24;;;;;;;38.60;24.93;;;;;;;8.34;100.00;153502.47;4916440;29;20452;-82
2023/02/24 05:46:56;;;;;;;41.40;26.77;;;;;;;8.29;100.00;153489.56;4924238;29;20779;-82
2023/02/24 05:49:28;;;;;;;44.77;26.07;;;;;;;8.26;100.00;153480.50;4919419;29;20452;-82
2023/02/24 05:51:56;;;;;;;49.00;27.47;;;;;;;8.30;100.00;153490.84;4918149;29;20453;-82
2023/02/24 05:54:27;;;;;;;39.13;24.30;;;;;;;8.28;100.00;153487.00;4928560;28;20501;-82
2023/02/24 05:56:55;;;;;;;41.20;25.67;;;;;;;8.30;100.00;153490.84;4915806;29;20486;-82
2023/02/24 05:59:23;;;;;;;36.37;24.53;;;;;;;8.25;100.00;153477.88;4918299;29;20449;-82
2023/02/24 06:01:52;;;;;;;40.30;26.47;;;;;;;8.23;100.00;153472.72;4902455;29;20781;-82
2023/02/24 06:04:38;;;;;;;43.87;26.10;;;;;;;8.23;100.00;153474.03;4922737;29;20948;-82
2023/02/24 06:07:07;;;;;;;40.30;24.00;;;;;;;8.25;100.00;153479.19;4909007;29;20802;-82
2023/02/24 06:09:38;;;;;;;46.17;28.27;;;;;;;8.23;100.00;153474.03;4911435;29;20449;-82
2023/02/24 06:12:06;;;;;;;44.27;27.20;;;;;;;8.22;100.00;153471.44;4926250;29;20569;-82
2023/02/24 06:14:34;;;;;;;43.40;26.43;;;;;;;8.21;100.00;153467.50;4924856;29;20561;-82
2023/02/24 06:17:02;;;;;;;40.27;25.03;;;;;;;8.25;100.00;153479.19;4909054;29;20465;-82
2023/02/24 06:19:30;;;;;;;42.33;25.30;;;;;;;8.23;100.00;153474.03;4931648;29;20469;-82
2023/02/24 06:22:00;;;;;;;46.93;24.77;;;;;;;8.26;100.00;153480.50;4913460;29;20468;-82
2023/02/24 06:24:29;;;;;;;41.03;25.33;;;;;;;8.26;100.00;153480.50;4925233;29;20544;-82
2023/02/24 06:27:01;;;;;;;41.07;27.73;;;;;;;8.25;100.00;153477.88;4922472;29;20488;-82
2023/02/24 06:29:29;;;;;;;45.43;24.30;;;;;;;8.23;100.00;153472.72;4909613;29;20989;-82
2023/02/24 06:31:57;;;;;;;44.40;24.50;;;;;;;8.22;100.00;153471.44;4923242;29;20548;-82
2023/02/24 06:34:25;;;;;;;47.07;24.33;;;;;;;8.21;100.00;153468.81;4923569;29;20457;-82
2023/02/24 06:36:51;;;;;;;39.00;24.70;;;;;;;8.20;100.00;153464.97;4930797;29;20444;-82
2023/02/24 06:39:18;;;;;;;41.40;26.17;;;;;;;8.21;100.00;153468.81;4917442;29;20465;-82
2023/02/24 06:41:50;;;;;;;42.43;24.37;;;;;;;8.19;100.00;153463.66;4929943;29;20460;-81
2023/02/24 06:44:17;;;;;;;44.00;26.00;;;;;;;8.17;100.00;153457.19;4922134;29;21260;-82
2023/02/24 06:46:44;;;;;;;40.30;23.57;;;;;;;8.14;100.00;153449.44;4925691;29;20458;-81
2023/02/24 06:49:11;;;;;;;44.30;24.77;;;;;;;8.11;100.00;153441.69;4928787;29;20474;-82
2023/02/24 06:51:38;;;;;;;41.77;26.37;;;;;;;8.17;100.00;153457.19;4931174;29;20575;-81
2023/02/24 06:54:06;;;;;;;40.07;25.10;;;;;;;8.11;100.00;153443.00;4914385;29;20531;-82
2023/02/24 06:56:37;;;;;;;48.00;25.30;;;;;;;8.09;100.00;153437.81;4931230;29;20979;-82
2023/02/24 06:59:09;;;;;;;42.60;24.37;;;;;;;8.10;100.00;153439.13;4927273;29;20952;-81
2023/02/24 07:01:43;;;;;;;44.27;25.20;;;;;;;8.10;100.00;153440.38;4900751;29;20458;-82
2023/02/24 07:04:19;;;;;;;39.27;24.37;;;;;;;8.11;100.00;153441.69;4913866;29;20578;-82
2023/02/24 07:06:50;;;;;;;46.00;24.40;;;;;;;8.13;100.00;153448.13;4920605;29;20479;-82
2023/02/24 07:09:18;;;;;;;44.70;25.37;;;;;;;8.17;100.00;153457.19;4928829;29;20529;-82
2023/02/24 07:11:50;;;;;;;43.20;25.03;;;;;;;8.20;100.00;153466.28;4910682;29;20459;-82
2023/02/24 07:14:19;;;;;;;43.37;24.63;;;;;;;8.21;100.00;153467.50;4912837;29;20486;-82
2023/02/24 07:16:52;;;;;;;42.27;25.23;;;;;;;8.20;100.00;153466.28;4924405;29;20457;-82
2023/02/24 07:19:20;;;;;;;45.27;26.93;;;;;;;8.20;100.00;153464.97;4914842;29;20492;-81
2023/02/24 07:21:49;;;;;;;42.50;23.70;;;;;;;8.24;100.00;153476.59;4922292;29;20457;-82
2023/02/24 07:24:23;;;;;;;40.80;25.00;;;;;;;8.26;100.00;153480.50;4923469;29;20835;-81
2023/02/24 07:26:55;;;;;;;49.03;26.20;;;;;;;8.24;100.00;153476.59;4913127;29;20607;-81
2023/02/24 07:29:24;;;;;;;45.97;24.97;;;;;;;8.27;100.00;153483.09;4932347;29;20493;-82
2023/02/24 07:31:53;;;;;;;40.97;23.87;;;;;;;8.30;100.00;153492.16;4929665;29;20611;-82
2023/02/24 07:34:23;;;;;;;48.50;27.07;;;;;;;8.26;100.00;153481.75;4908999;29;20464;-82
2023/02/24 07:36:51;;;;;;;41.93;26.00;;;;;;;8.28;100.00;153487.00;4908376;29;20548;-81
2023/02/24 07:39:18;;;;;;;49.50;26.80;;;;;;;8.28;100.00;153487.00;4920824;29;20566;-81
2023/02/24 07:41:48;;;;;;;49.17;27.77;;;;;;;8.27;100.00;153484.41;4926239;29;20455;-82
2023/02/24 07:44:15;;;;;;;50.97;26.00;;;;;;;8.28;100.00;153487.00;4926873;29;21106;-82
2023/02/24 07:46:44;;;;;;;44.13;28.23;;;;;;;8.29;100.00;153489.56;4920309;29;20468;-82
2023/02/24 07:49:13;;;;;;;45.80;25.73;;;;;;;8.33;100.00;153499.91;4895469;29;20545;-81
2023/02/24 07:51:41;;;;;;;50.60;28.50;;;;;;;8.34;100.00;153501.22;4932792;29;20459;-81
2023/02/24 07:54:10;;;;;;;48.77;26.47;;;;;;;8.39;100.00;153514.13;4929745;29;21007;-81
2023/02/24 07:56:44;;;;;;;43.87;26.53;;;;;;;8.39;100.00;153515.38;4932179;29;21142;-82
2023/02/24 07:59:14;;;;;;;50.53;26.77;;;;;;;8.35;100.00;153505.06;4921819;29;20455;-82
2023/02/24 08:01:48;;;;;;;45.27;27.73;;;;;;;8.36;100.00;153506.38;4922502;29;20503;-82
2023/02/24 08:04:18;;;;;;;47.10;26.60;;;;;;;8.36;100.00;153507.69;4924200;29;20476;-82
2023/02/24 08:06:49;;;;;;;51.80;27.00;;;;;;;8.35;100.00;153505.06;4927278;29;20449;-82
2023/02/24 08:09:19;;;;;;;50.37;26.00;;;;;;;8.33;100.00;153498.63;4914838;29;20529;-82
2023/02/24 08:11:51;;;;;;;43.30;28.07;;;;;;;8.35;100.00;153505.06;4917163;29;20544;-81
2023/02/24 08:14:18;;;;;;;48.27;28.83;;;;;;;8.41;100.00;153519.28;4898548;29;20460;-81
2023/02/24 08:16:46;;;;;;;41.00;28.20;;;;;;;8.44;100.00;153527.06;4928995;29;20460;-82
2023/02/24 08:19:19;;;;;;;46.33;25.47;;;;;;;8.46;100.00;153532.22;4921244;29;20468;-82
2023/02/24 08:21:49;;;;;;;39.30;25.07;;;;;;;8.45;100.00;153529.63;4911020;29;20453;-81
2023/02/24 08:24:17;;;;;;;41.60;26.67;;;;;;;8.43;100.00;153525.75;4904464;29;20514;-81
2023/02/24 08:26:47;;;;;;;40.40;24.10;;;;;;;8.44;100.00;153528.34;4943239;28;20927;-82
2023/02/24 08:29:13;;;;;;;42.87;27.30;;;;;;;8.46;100.00;153533.53;4934264;29;20453;-81
2023/02/24 08:31:41;;;;;;;38.17;23.30;;;;;;;8.50;100.00;153543.84;4945229;28;20556;-81
2023/02/24 08:34:08;;;;;;;39.43;23.60;;;;;;;8.50;100.00;153543.84;4943103;29;20539;-81
2023/02/24 08:36:35;;;;;;;34.50;24.80;;;;;;;8.57;100.00;153560.66;4930178;29;20478;-81
2023/02/24 08:39:03;;;;;;;34.97;24.60;;;;;;;8.61;100.00;153569.69;4933049;29;20802;-81
2023/02/24 08:44:25;;;;;;;41.90;24.37;;;;;;;8.69;100.00;153590.38;5063141;28;20624;-81
2023/02/24 08:46:53;;;;;;;34.07;23.33;;;;;;;8.77;100.00;153612.34;5073134;28;20489;-81
2023/02/24 08:49:23;;;;;;;34.53;23.73;;;;;;;8.81;100.00;153621.41;5069860;28;20435;-81
2023/02/24 08:51:52;;;;;;;33.40;21.00;;;;;;;8.94;100.00;153655.03;5063607;28;20435;-82
2023/02/24 08:54:25;;;;;;;33.27;21.00;;;;;;;9.00;100.00;153670.56;5053486;28;20482;-82
2023/02/24 08:56:54;;;;;;;37.50;21.40;;;;;;;9.08;100.00;153692.50;5053452;28;20447;-81
2023/02/24 09:04:53;;;;;;;33.30;22.17;;;;;;;9.45;100.00;153785.69;5055286;28;20914;-82
2023/02/24 09:07:21;;;;;;;31.83;19.63;;;;;;;9.64;100.00;153834.81;5058989;28;21147;-82
2023/02/24 09:09:49;;;;;;;30.97;21.17;;;;;;;9.87;100.00;153893.06;5048578;28;20443;-81
2023/02/24 09:12:45;;;;;;;28.30;17.40;;;;;;;10.07;100.00;153946.09;5060635;28;20458;-82
2023/02/24 09:15:15;;;;;;;31.60;17.43;;;;;;;10.18;100.00;153973.34;5051645;28;20447;-82
2023/02/24 09:18:05;;;;;;;26.83;18.73;;;;;;;10.27;100.00;153996.66;5055418;28;21298;-81
2023/02/24 09:23:19;;;;;;;19.70;14.60;;;;;;;10.29;100.00;154001.81;5060116;28;20981;-81
2023/02/24 09:25:49;;;;;;;21.13;14.27;;;;;;;10.25;100.00;153991.44;5053876;28;20451;-81
2023/02/24 09:28:17;;;;;;;21.17;12.90;;;;;;;10.23;100.00;153987.56;5054104;28;20457;-81
2023/02/24 09:30:55;;;;;;;17.60;11.73;;;;;;;10.11;100.00;153955.19;5060374;28;20956;-81
2023/02/24 09:33:24;;;;;;;19.33;12.77;;;;;;;10.13;100.00;153961.69;5053432;28;20588;-81
2023/02/24 09:36:01;;;;;;;17.43;11.80;;;;;;;10.10;100.00;153952.56;5050956;28;20479;-81
2023/02/24 09:39:08;;;;;;;15.60;11.53;;;;;;;10.09;100.00;153949.97;5058543;28;20458;-81
2023/02/24 09:41:31;;;;;;;16.27;12.03;;;;;;;10.07;100.00;153944.81;5042370;28;20831;-81
2023/02/24 09:44:02;;;;;;;18.10;12.23;;;;;;;10.06;100.00;153943.50;5078709;28;20517;-81
2023/02/24 09:46:35;;;;;;;20.67;12.03;;;;;;;10.01;100.00;153929.25;5044895;28;20562;-81
2023/02/24 09:49:07;;;;;;;16.87;10.43;;;;;;;9.95;100.00;153915.06;5057932;28;20918;-81
2023/02/24 09:51:41;;;;;;;14.50;9.73;;;;;;;9.94;100.00;153912.47;5074690;28;20458;-81
2023/02/24 09:54:14;;;;;;;17.97;9.03;;;;;;;9.97;100.00;153918.91;5052038;28;20760;-81
2023/02/24 09:56:45;;;;;;;14.40;8.57;;;;;;;9.92;100.00;153907.28;5049472;28;20443;-81
2023/02/24 09:59:24;;;;;;;14.83;9.00;;;;;;;9.98;100.00;153922.78;5045731;28;20549;-81
2023/02/24 10:02:00;;;;;;;15.17;8.40;;;;;;;9.93;100.00;153908.59;5050196;28;20454;-81
2023/02/24 10:04:47;;;;;;;19.27;13.40;;;;;;;9.85;100.00;153889.16;5047369;28;21673;-81
2023/02/24 10:07:17;;;;;;;23.80;15.00;;;;;;;9.78;100.00;153871.03;5044809;28;20462;-81
2023/02/24 10:09:46;;;;;;;28.33;16.10;;;;;;;9.77;100.00;153868.44;5045482;28;20447;-82
2023/02/24 10:12:17;;;;;;;25.90;17.43;;;;;;;9.69;100.00;153849.03;5047003;28;20806;-81
2023/02/24 10:14:51;;;;;;;22.20;13.80;;;;;;;9.77;100.00;153869.75;5040473;28;20435;-81
2023/02/24 10:17:24;;;;;;;15.67;8.47;;;;;;;9.82;100.00;153881.41;5045699;28;20534;-81
2023/02/24 10:19:59;;;;;;;14.40;10.07;;;;;;;9.89;100.00;153899.53;5064894;28;20467;-81
2023/02/24 10:22:49;;;;;;;17.80;11.37;;;;;;;9.97;100.00;153918.91;5062828;28;20454;-81
2023/02/24 10:25:43;;;;;;;14.83;9.40;;;;;;;10.01;100.00;153929.25;5066967;28;20439;-82
2023/02/24 10:28:20;;;;;;;13.00;8.30;;;;;;;10.08;100.00;153948.72;5025860;28;20803;-81
2023/02/24 10:31:02;;;;;;;10.43;7.40;;;;;;;10.18;100.00;153973.34;5061011;28;20504;-81
2023/02/24 10:33:37;;;;;;;13.20;9.70;;;;;;;10.26;100.00;153994.03;5059308;28;20820;-81
2023/02/24 10:36:12;;;;;;;12.37;8.73;;;;;;;10.29;100.00;154001.81;5046275;28;20454;-81
2023/02/24 10:38:44;;;;;;;15.23;8.40;;;;;;;10.32;100.00;154009.59;5043331;28;21047;-81
2023/02/24 10:41:14;;;;;;;13.70;8.43;;;;;;;10.29;100.00;154001.81;5060126;28;20962;-81
2023/02/24 10:43:47;;;;;;;12.57;8.20;;;;;;;10.21;100.00;153981.09;5047677;28;20987;-81
2023/02/24 10:46:37;;;;;;;19.40;13.53;;;;;;;10.15;100.00;153966.88;5047588;28;20542;-81
2023/02/24 10:49:08;;;;;;;24.80;15.77;;;;;;;9.93;100.00;153908.59;5039601;28;20458;-81
2023/02/24 10:51:41;;;;;;;18.90;12.50;;;;;;;9.75;100.00;153864.56;5048909;28;20467;-81
2023/02/24 10:57:06;;;;;;;17.50;12.37;;;;;;;9.78;100.00;153872.34;5061432;28;20456;-81
2023/02/24 11:00:19;;;;;;;18.90;11.67;;;;;;;9.73;100.00;153859.41;5031016;28;20515;-81
2023/02/24 11:03:09;;;;;;;16.23;10.40;;;;;;;9.74;100.00;153861.97;5039291;28;20466;-81
2023/02/24 11:06:05;;;;;;;14.63;10.40;;;;;;;9.68;100.00;153846.47;5053191;28;20450;-81
2023/02/24 11:08:42;;;;;;;14.97;10.13;;;;;;;9.63;100.00;153832.25;5041334;28;20455;-81
2023/02/24 11:11:18;;;;;;;16.07;10.10;;;;;;;9.63;100.00;153833.53;5059957;28;20454;-81
2023/02/24 11:19:32;;;;;;;13.70;10.30;;;;;;;9.82;100.00;153882.69;5058072;28;20440;-81
2023/02/24 11:22:02;;;;;;;16.73;12.43;;;;;;;9.78;100.00;153872.34;5026649;28;20480;-81
2023/02/24 11:24:29;;;;;;;17.47;11.00;;;;;;;9.77;100.00;153868.44;5051250;28;20550;-81
2023/02/24 11:26:55;;;;;;;21.80;13.80;;;;;;;9.70;100.00;153850.34;5040491;28;20549;-81
2023/02/24 11:29:47;;;;;;;23.63;14.43;;;;;;;9.59;100.00;153823.16;5053988;28;20555;-81
2023/02/24 11:32:29;;;;;;;22.00;15.57;;;;;;;9.58;100.00;153820.56;5039536;28;20459;-81
2023/02/24 11:35:04;;;;;;;22.17;14.20;;;;;;;9.62;100.00;153829.63;5035027;28;20470;-81
2023/02/24 11:37:37;;;;;;;24.30;15.03;;;;;;;9.64;100.00;153836.09;5040275;28;20459;-81
2023/02/24 11:40:08;;;;;;;23.40;15.30;;;;;;;9.56;100.00;153814.09;5038760;28;20503;-81
2023/02/24 11:42:40;;;;;;;21.43;13.70;;;;;;;9.56;100.00;153814.09;5036982;28;20479;-81
2023/02/24 11:45:14;;;;;;;23.80;14.60;;;;;;;9.57;100.00;153818.00;5037432;28;20846;-81
2023/02/24 11:47:43;;;;;;;26.10;15.90;;;;;;;9.61;100.00;153828.34;5040224;28;20464;-81
2023/02/24 11:50:26;;;;;;;22.93;14.00;;;;;;;9.61;100.00;153828.34;5042871;28;20456;-81
2023/02/24 11:52:55;;;;;;;27.87;15.90;;;;;;;9.59;100.00;153823.16;5039879;28;20479;-81
2023/02/24 11:55:31;;;;;;;25.40;15.80;;;;;;;9.62;100.00;153830.94;5035841;28;20444;-81